createdAt,value
2019-04-28T00:01:28.218Z,2.80
2019-04-28T00:03:55.976Z,3.07
2019-04-28T00:06:23.754Z,3.60
2019-04-28T00:08:54.021Z,2.97
2019-04-28T00:11:21.976Z,2.77
2019-04-28T00:13:53.208Z,2.80
2019-04-28T00:16:20.994Z,2.60
2019-04-28T00:18:50.955Z,2.90
2019-04-28T00:21:25.278Z,2.60
2019-04-28T00:24:01.735Z,2.43
2019-04-28T00:26:40.981Z,2.40
2019-04-28T00:29:08.906Z,2.40
2019-04-28T00:31:36.749Z,2.27
2019-04-28T00:34:04.634Z,2.60
2019-04-28T00:36:33.153Z,2.80
2019-04-28T00:39:01.551Z,3.23
2019-04-28T00:41:30.895Z,3.77
2019-04-28T00:43:58.853Z,3.30
2019-04-28T00:46:31.993Z,3.93
2019-04-28T00:48:59.743Z,3.57
2019-04-28T00:51:27.466Z,3.93
2019-04-28T00:53:55.268Z,3.70
2019-04-28T00:56:23.303Z,3.60
2019-04-28T00:58:51.601Z,4.20
2019-04-28T01:01:27.891Z,4.23
2019-04-28T01:03:55.585Z,3.90
2019-04-28T01:06:23.363Z,3.83
2019-04-28T01:08:51.614Z,3.57
2019-04-28T01:11:19.544Z,4.20
2019-04-28T01:13:47.272Z,3.70
2019-04-28T01:16:30.882Z,3.60
2019-04-28T01:19:04.014Z,4.00
2019-04-28T01:21:50.327Z,3.50
2019-04-28T01:24:20.098Z,3.00
2019-04-28T01:26:50.817Z,2.90
2019-04-28T01:29:19.520Z,3.00
2019-04-28T01:32:00.405Z,3.30
2019-04-28T01:34:29.994Z,2.93
2019-04-28T01:36:59.714Z,2.83
2019-04-28T01:39:29.607Z,3.47
2019-04-28T01:41:57.390Z,2.77
2019-04-28T01:44:27.090Z,3.47
2019-04-28T01:46:54.848Z,3.17
2019-04-28T01:49:22.576Z,3.17
2019-04-28T01:51:57.616Z,3.40
2019-04-28T01:54:25.814Z,2.97
2019-04-28T01:56:53.582Z,3.50
2019-04-28T01:59:22.112Z,3.73
2019-04-28T02:01:49.949Z,3.20
2019-04-28T02:04:19.723Z,3.90
2019-04-28T02:06:49.700Z,3.43
2019-04-28T02:09:19.443Z,3.40
2019-04-28T02:11:47.280Z,3.23
2019-04-28T02:14:15.033Z,3.73
2019-04-28T02:16:43.566Z,3.70
2019-04-28T02:19:11.318Z,3.70
2019-04-28T02:22:02.608Z,3.60
2019-04-28T02:24:31.785Z,3.60
2019-04-28T02:27:00.797Z,3.77
2019-04-28T02:29:30.046Z,3.60
2019-04-28T02:32:01.726Z,3.63
2019-04-28T02:34:30.776Z,3.50
2019-04-28T02:36:57.558Z,4.10
2019-04-28T02:39:25.294Z,3.40
2019-04-28T02:41:53.000Z,3.60
2019-04-28T02:44:23.636Z,3.07
2019-04-28T02:46:50.850Z,3.33
2019-04-28T02:49:24.362Z,3.50
2019-04-28T02:52:02.983Z,3.63
2019-04-28T02:54:30.878Z,3.53
2019-04-28T02:57:01.271Z,3.90
2019-04-28T02:59:30.463Z,3.77
2019-04-28T03:02:00.472Z,3.90
2019-04-28T03:04:30.621Z,3.83
2019-04-28T03:06:57.348Z,3.70
2019-04-28T03:09:25.096Z,4.00
2019-04-28T03:11:52.825Z,4.20
2019-04-28T03:14:21.052Z,4.10
2019-04-28T03:16:50.968Z,4.07
2019-04-28T03:19:21.173Z,4.07
2019-04-28T03:21:50.859Z,4.10
2019-04-28T03:24:21.107Z,4.00
2019-04-28T03:27:13.404Z,4.40
2019-04-28T03:30:06.763Z,4.30
2019-04-28T03:32:51.722Z,4.73
2019-04-28T03:35:06.934Z,4.10
2019-04-28T03:37:34.735Z,4.17
2019-04-28T03:40:03.181Z,4.50
2019-04-28T03:42:31.474Z,4.60
2019-04-28T03:45:01.273Z,4.50
2019-04-28T03:47:31.281Z,4.40
2019-04-28T03:50:00.133Z,4.03
2019-04-28T03:52:28.029Z,4.23
2019-04-28T03:54:55.810Z,4.60
2019-04-28T03:57:23.599Z,4.90
2019-04-28T03:59:51.589Z,4.53
2019-04-28T04:02:23.014Z,5.17
2019-04-28T04:04:52.125Z,4.90
2019-04-28T04:07:21.245Z,5.00
2019-04-28T04:10:11.917Z,5.10
2019-04-28T04:13:11.171Z,5.00
2019-04-28T04:15:50.752Z,5.30
2019-04-28T04:18:22.804Z,4.93
2019-04-28T04:20:51.313Z,5.40
2019-04-28T04:23:22.829Z,5.60
2019-04-28T04:25:51.250Z,4.80
2019-04-28T04:28:20.573Z,5.27
2019-04-28T04:30:50.769Z,5.30
2019-04-28T04:33:20.783Z,6.73
2019-04-28T04:35:51.659Z,5.60
2019-04-28T04:38:21.479Z,5.90
2019-04-28T04:40:51.113Z,5.97
2019-04-28T04:43:17.932Z,6.27
2019-04-28T04:45:45.705Z,6.73
2019-04-28T04:48:13.430Z,6.67
2019-04-28T04:50:41.395Z,5.77
2019-04-28T04:53:11.003Z,7.33
2019-04-28T04:55:40.884Z,7.47
2019-04-28T04:58:10.544Z,7.03
2019-04-28T05:00:47.381Z,6.33
2019-04-28T05:03:21.225Z,7.07
2019-04-28T05:05:50.195Z,6.67
2019-04-28T05:08:18.031Z,6.43
2019-04-28T05:10:45.777Z,6.50
2019-04-28T05:13:13.537Z,6.60
2019-04-28T05:15:41.298Z,6.10
2019-04-28T05:18:10.127Z,6.50
2019-04-28T05:20:37.959Z,6.23
2019-04-28T05:23:25.335Z,6.77
2019-04-28T05:25:53.076Z,6.90
2019-04-28T05:28:20.837Z,6.10
2019-04-28T05:30:50.228Z,6.07
2019-04-28T05:33:32.054Z,5.97
2019-04-28T05:36:01.122Z,5.87
2019-04-28T05:38:27.967Z,5.83
2019-04-28T05:40:55.716Z,6.13
2019-04-28T05:43:23.495Z,5.60
2019-04-28T05:45:51.218Z,6.30
2019-04-28T05:48:36.468Z,5.23
2019-04-28T05:51:05.516Z,5.17
2019-04-28T05:53:42.479Z,5.23
2019-04-28T05:56:29.572Z,5.27
2019-04-28T05:59:04.185Z,4.80
2019-04-28T06:01:54.116Z,4.67
2019-04-28T06:04:25.266Z,4.70
2019-04-28T06:06:57.379Z,5.67
2019-04-28T06:09:31.499Z,5.10
2019-04-28T06:12:00.169Z,5.00
2019-04-28T06:14:29.656Z,4.73
2019-04-28T06:16:57.693Z,5.00
2019-04-28T06:19:25.489Z,5.00
2019-04-28T06:21:53.241Z,4.93
2019-04-28T06:24:20.979Z,4.30
2019-04-28T06:26:48.724Z,4.40
2019-04-28T06:29:16.509Z,3.93
2019-04-28T06:31:44.229Z,4.00
2019-04-28T06:34:12.016Z,3.67
2019-04-28T06:36:39.760Z,3.90
2019-04-28T06:39:08.259Z,3.33
2019-04-28T06:41:36.185Z,3.47
2019-04-28T06:44:04.203Z,3.73
2019-04-28T06:46:32.001Z,3.60
2019-04-28T06:48:59.754Z,4.37
2019-04-28T06:51:27.532Z,3.57
2019-04-28T06:53:55.309Z,3.70
2019-04-28T06:56:23.109Z,3.50
2019-04-28T06:58:58.745Z,3.40
2019-04-28T07:01:20.627Z,3.30
2019-04-28T07:03:48.443Z,3.07
2019-04-28T07:06:16.253Z,3.33
2019-04-28T07:08:44.027Z,3.30
2019-04-28T07:11:11.892Z,3.17
2019-04-28T07:13:39.650Z,2.97
2019-04-28T07:16:07.432Z,3.10
2019-04-28T07:18:35.165Z,2.90
2019-04-28T07:21:28.417Z,3.00
2019-04-28T07:23:56.533Z,3.00
2019-04-28T07:26:24.434Z,2.90
2019-04-28T07:28:52.293Z,3.00
2019-04-28T07:31:21.882Z,2.83
2019-04-28T07:33:49.670Z,3.23
2019-04-28T07:36:17.468Z,3.50
2019-04-28T07:38:45.214Z,3.07
2019-04-28T07:41:13.084Z,3.30
2019-04-28T07:43:40.888Z,3.20
2019-04-28T07:46:08.672Z,3.20
2019-04-28T07:48:36.406Z,3.17
2019-04-28T07:51:04.187Z,3.40
2019-04-28T07:53:38.468Z,3.30
2019-04-28T07:56:06.244Z,3.10
2019-04-28T07:58:33.994Z,3.27
2019-04-28T08:01:02.101Z,2.90
2019-04-28T08:03:29.795Z,3.20
2019-04-28T08:05:57.582Z,3.37
2019-04-28T08:08:25.326Z,3.17
2019-04-28T08:10:53.095Z,3.03
2019-04-28T08:13:20.845Z,3.07
2019-04-28T08:15:48.571Z,3.30
2019-04-28T08:18:16.378Z,3.43
2019-04-28T08:20:44.136Z,3.00
2019-04-28T08:23:11.933Z,3.30
2019-04-28T08:25:39.675Z,3.37
2019-04-28T08:28:07.454Z,3.30
2019-04-28T08:30:35.204Z,2.97
2019-04-28T08:33:13.721Z,2.90
2019-04-28T08:35:41.461Z,3.20
2019-04-28T08:38:09.231Z,3.20
2019-04-28T08:40:36.973Z,3.00
2019-04-28T08:43:04.799Z,3.13
2019-04-28T08:45:32.579Z,2.90
2019-04-28T08:48:00.410Z,2.83
2019-04-28T08:50:28.179Z,3.43
2019-04-28T08:52:55.991Z,3.17
2019-04-28T08:55:23.795Z,2.97
2019-04-28T08:57:51.573Z,2.97
2019-04-28T09:00:20.840Z,2.93
2019-04-28T09:02:48.586Z,3.10
2019-04-28T09:05:16.338Z,3.27
2019-04-28T09:07:44.132Z,2.73
2019-04-28T09:10:12.004Z,2.70
2019-04-28T09:12:39.747Z,3.07
2019-04-28T09:15:07.715Z,3.00
2019-04-28T09:17:35.456Z,2.50
2019-04-28T09:20:03.658Z,3.27
2019-04-28T09:22:31.429Z,3.10
2019-04-28T09:24:59.256Z,3.50
2019-04-28T09:27:27.006Z,3.53
2019-04-28T09:29:54.766Z,3.73
2019-04-28T09:32:22.568Z,3.40
2019-04-28T09:34:50.350Z,3.80
2019-04-28T09:37:18.130Z,3.50
2019-04-28T09:39:50.248Z,3.10
2019-04-28T09:42:55.566Z,2.93
2019-04-28T09:45:26.081Z,7.00
2019-04-28T09:47:53.818Z,2.77
2019-04-28T09:50:21.671Z,3.10
2019-04-28T09:52:49.426Z,2.70
2019-04-28T09:55:17.196Z,12.73
2019-04-28T09:57:44.940Z,3.10
2019-04-28T10:00:12.957Z,3.10
2019-04-28T10:02:40.758Z,2.73
2019-04-28T10:05:08.970Z,3.40
2019-04-28T10:07:36.741Z,3.40
2019-04-28T10:10:05.726Z,3.53
2019-04-28T10:12:33.567Z,2.87
2019-04-28T10:15:01.429Z,3.30
2019-04-28T10:17:29.251Z,3.60
2019-04-28T10:19:57.052Z,3.17
2019-04-28T10:22:24.892Z,3.20
2019-04-28T10:24:52.663Z,3.40
2019-04-28T10:27:20.489Z,3.33
2019-04-28T10:29:48.275Z,2.60
2019-04-28T10:32:16.003Z,2.80
2019-04-28T10:34:54.314Z,2.90
2019-04-28T10:37:13.419Z,2.53
2019-04-28T10:39:49.786Z,2.40
2019-04-28T10:42:17.727Z,2.73
2019-04-28T10:44:47.407Z,2.70
2019-04-28T10:47:16.404Z,2.90
2019-04-28T10:49:44.364Z,2.87
2019-04-28T10:52:12.195Z,2.60
2019-04-28T10:54:39.938Z,3.10
2019-04-28T10:57:07.799Z,2.20
2019-04-28T10:59:35.699Z,3.00
2019-04-28T11:02:03.586Z,2.90
2019-04-28T11:05:08.047Z,3.50
2019-04-28T11:07:29.972Z,3.20
2019-04-28T11:10:17.206Z,3.93
2019-04-28T11:12:45.196Z,3.70
2019-04-28T11:15:22.038Z,3.80
2019-04-28T11:17:51.777Z,3.70
2019-04-28T11:20:19.571Z,3.60
2019-04-28T11:22:47.455Z,3.80
2019-04-28T11:25:15.222Z,3.70
2019-04-28T11:27:43.032Z,3.60
2019-04-28T11:30:11.506Z,4.33
2019-04-28T11:32:42.767Z,3.43
2019-04-28T11:35:25.812Z,3.63
2019-04-28T11:37:53.580Z,3.27
2019-04-28T11:40:21.430Z,3.13
2019-04-28T11:42:51.782Z,3.60
2019-04-28T11:45:19.647Z,3.63
2019-04-28T11:47:47.467Z,4.10
2019-04-28T11:50:15.460Z,3.80
2019-04-28T11:52:43.267Z,3.40
2019-04-28T11:55:11.345Z,3.30
2019-04-28T11:57:39.127Z,3.17
2019-04-28T12:00:16.539Z,2.90
2019-04-28T12:02:44.377Z,2.90
2019-04-28T12:05:12.309Z,3.37
2019-04-28T12:07:40.132Z,3.90
2019-04-28T12:10:16.199Z,2.60
2019-04-28T12:13:12.519Z,2.40
2019-04-28T12:16:08.622Z,2.80
2019-04-28T12:18:54.409Z,3.42
2019-04-28T12:21:22.337Z,3.10
2019-04-28T12:23:50.166Z,2.75
2019-04-28T12:26:17.919Z,2.62
2019-04-28T12:28:45.697Z,2.80
2019-04-28T12:31:13.567Z,2.40
2019-04-28T12:33:41.376Z,2.60
2019-04-28T12:36:09.133Z,2.40
2019-04-28T12:38:36.925Z,2.25
2019-04-28T12:41:04.685Z,2.47
2019-04-28T12:43:32.477Z,2.12
2019-04-28T12:46:01.577Z,2.47
2019-04-28T12:48:29.371Z,3.00
2019-04-28T12:50:59.377Z,2.27
2019-04-28T12:53:27.557Z,2.60
2019-04-28T12:55:55.289Z,2.20
2019-04-28T12:58:23.146Z,2.60
2019-04-28T13:01:22.710Z,2.25
2019-04-28T13:04:08.590Z,2.00
2019-04-28T13:06:36.410Z,2.00
2019-04-28T13:09:06.504Z,2.00
2019-04-28T13:11:34.335Z,1.80
2019-04-28T13:14:02.124Z,1.90
2019-04-28T13:16:29.912Z,1.92
2019-04-28T13:18:57.721Z,2.27
2019-04-28T13:21:25.471Z,2.47
2019-04-28T13:23:54.686Z,2.75
2019-04-28T13:26:22.524Z,3.08
2019-04-28T13:28:52.810Z,2.97
2019-04-28T13:31:20.684Z,3.10
2019-04-28T13:33:56.175Z,3.60
2019-04-28T13:36:18.095Z,3.40
2019-04-28T13:38:45.882Z,3.13
2019-04-28T13:41:13.682Z,3.10
2019-04-28T13:43:41.435Z,3.70
2019-04-28T13:46:09.201Z,3.57
2019-04-28T13:48:36.966Z,3.80
2019-04-28T13:51:04.739Z,3.70
2019-04-28T13:53:32.499Z,3.73
2019-04-28T13:56:02.578Z,3.30
2019-04-28T13:58:58.621Z,2.80
2019-04-28T14:01:44.424Z,2.83
2019-04-28T14:04:33.305Z,2.97
2019-04-28T14:07:05.363Z,2.40
2019-04-28T14:09:33.191Z,2.77
2019-04-28T14:12:01.077Z,2.50
2019-04-28T14:14:28.837Z,2.80
2019-04-28T14:16:56.690Z,3.37
2019-04-28T14:19:24.493Z,3.67
2019-04-28T14:21:52.307Z,3.20
2019-04-28T14:24:20.130Z,3.23
2019-04-28T14:26:47.887Z,3.20
2019-04-28T14:29:15.654Z,3.20
2019-04-28T14:31:43.479Z,3.23
2019-04-28T14:34:11.269Z,2.93
2019-04-28T14:36:42.109Z,3.07
2019-04-28T14:39:09.117Z,2.90
2019-04-28T14:41:37.072Z,3.00
2019-04-28T14:44:04.893Z,3.87
2019-04-28T14:46:32.766Z,3.83
2019-04-28T14:49:00.762Z,3.30
2019-04-28T14:51:30.137Z,3.30
2019-04-28T14:53:57.924Z,3.10
2019-04-28T14:56:25.664Z,3.30
2019-04-28T14:58:53.506Z,3.27
2019-04-28T15:01:41.009Z,3.30
2019-04-28T15:04:16.219Z,3.83
2019-04-28T15:06:56.147Z,3.67
2019-04-28T15:09:32.844Z,3.50
2019-04-28T15:12:02.651Z,3.37
2019-04-28T15:14:30.448Z,3.77
2019-04-28T15:16:58.189Z,4.30
2019-04-28T15:19:25.969Z,3.77
2019-04-28T15:21:54.680Z,3.83
2019-04-28T15:24:23.514Z,3.37
2019-04-28T15:26:51.324Z,3.60
2019-04-28T15:29:19.086Z,3.60
2019-04-28T15:31:46.842Z,3.03
2019-04-28T15:34:14.637Z,3.27
2019-04-28T15:36:42.415Z,2.97
2019-04-28T15:39:11.668Z,3.10
2019-04-28T15:41:39.441Z,3.23
2019-04-28T15:44:07.219Z,2.73
2019-04-28T15:46:35.119Z,3.50
2019-04-28T15:49:02.917Z,3.20
2019-04-28T15:51:30.696Z,3.27
2019-04-28T15:53:58.405Z,2.87
2019-04-28T15:56:37.616Z,3.10
2019-04-28T15:59:06.689Z,3.10
2019-04-28T16:01:34.457Z,3.33
2019-04-28T16:04:02.342Z,3.23
2019-04-28T16:06:30.149Z,3.70
2019-04-28T16:08:57.913Z,3.30
2019-04-28T16:11:28.736Z,3.40
2019-04-28T16:13:55.305Z,3.53
2019-04-28T16:16:23.216Z,3.80
2019-04-28T16:18:50.999Z,4.30
2019-04-28T16:21:18.807Z,4.20
2019-04-28T16:23:46.597Z,3.10
2019-04-28T16:26:14.402Z,3.23
2019-04-28T16:28:42.217Z,3.47
2019-04-28T16:31:10.061Z,3.67
2019-04-28T16:33:37.833Z,3.80
2019-04-28T16:36:05.798Z,4.20
2019-04-28T16:38:33.765Z,3.80
2019-04-28T16:41:04.346Z,4.20
2019-04-28T16:43:38.125Z,4.50
2019-04-28T16:46:05.916Z,3.67
2019-04-28T16:48:33.715Z,4.03
2019-04-28T16:51:01.473Z,4.10
2019-04-28T16:53:29.236Z,3.90
2019-04-28T16:56:34.767Z,4.47
2019-04-28T16:59:25.155Z,4.63
2019-04-28T17:01:59.648Z,4.70
2019-04-28T17:04:27.433Z,4.40
2019-04-28T17:06:55.261Z,5.00
2019-04-28T17:09:23.925Z,4.67
2019-04-28T17:11:51.726Z,5.10
2019-04-28T17:14:19.502Z,5.60
2019-04-28T17:16:47.296Z,5.77
2019-04-28T17:19:15.196Z,5.47
2019-04-28T17:21:42.953Z,5.00
2019-04-28T17:24:10.740Z,5.90
2019-04-28T17:26:38.514Z,5.77
2019-04-28T17:29:06.353Z,5.63
2019-04-28T17:31:34.244Z,5.17
2019-04-28T17:34:02.236Z,4.70
2019-04-28T17:36:30.023Z,5.50
2019-04-28T17:38:57.830Z,5.70
2019-04-28T17:41:26.103Z,5.00
2019-04-28T17:43:53.928Z,5.70
2019-04-28T17:46:21.675Z,5.40
2019-04-28T17:48:54.641Z,5.00
2019-04-28T17:51:22.412Z,5.50
2019-04-28T17:53:50.207Z,6.10
2019-04-28T17:56:17.947Z,5.53
2019-04-28T17:58:45.768Z,6.20
2019-04-28T18:01:33.504Z,6.10
2019-04-28T18:04:19.374Z,5.60
2019-04-28T18:06:51.786Z,5.07
2019-04-28T18:09:19.864Z,5.87
2019-04-28T18:11:47.736Z,5.93
2019-04-28T18:14:15.487Z,5.90
2019-04-28T18:17:02.871Z,5.73
2019-04-28T18:19:31.091Z,5.90
2019-04-28T18:21:58.968Z,5.80
2019-04-28T18:24:26.728Z,5.70
2019-04-28T18:26:54.526Z,6.07
2019-04-28T18:29:22.361Z,5.50
2019-04-28T18:32:18.605Z,6.03
2019-04-28T18:34:55.168Z,5.03
2019-04-28T18:37:42.614Z,5.23
2019-04-28T18:40:20.373Z,5.40
2019-04-28T18:42:54.561Z,5.40
2019-04-28T18:45:22.371Z,5.13
2019-04-28T18:47:50.181Z,5.50
2019-04-28T18:50:18.016Z,5.47
2019-04-28T18:52:45.860Z,4.60
2019-04-28T18:55:13.658Z,5.80
2019-04-28T18:57:41.492Z,5.33
2019-04-28T19:00:09.757Z,5.63
2019-04-28T19:02:42.558Z,5.33
2019-04-28T19:05:10.663Z,5.17
2019-04-28T19:08:09.875Z,5.80
2019-04-28T19:10:45.297Z,5.23
2019-04-28T19:13:25.110Z,6.40
2019-04-28T19:16:15.552Z,5.90
2019-04-28T19:18:44.466Z,5.90
2019-04-28T19:21:12.272Z,5.83
2019-04-28T19:23:40.059Z,5.40
2019-04-28T19:26:07.853Z,5.70
2019-04-28T19:28:35.634Z,5.03
2019-04-28T19:31:03.513Z,5.43
2019-04-28T19:33:31.311Z,5.37
2019-04-28T19:35:59.088Z,5.50
2019-04-28T19:38:26.906Z,5.50
2019-04-28T19:40:54.657Z,6.00
2019-04-28T19:43:22.432Z,5.63
2019-04-28T19:45:52.114Z,5.80
2019-04-28T19:48:19.891Z,5.67
2019-04-28T19:50:47.723Z,6.03
2019-04-28T19:53:15.497Z,5.50
2019-04-28T19:55:49.629Z,5.60
2019-04-28T19:58:24.195Z,5.37
2019-04-28T20:00:58.008Z,5.60
2019-04-28T20:03:25.801Z,5.87
2019-04-28T20:05:53.663Z,5.27
2019-04-28T20:08:21.477Z,5.83
2019-04-28T20:10:49.297Z,5.53
2019-04-28T20:13:17.148Z,6.10
2019-04-28T20:15:44.976Z,5.33
2019-04-28T20:18:12.803Z,5.50
2019-04-28T20:20:40.613Z,5.40
2019-04-28T20:23:08.400Z,6.03
2019-04-28T20:25:36.264Z,5.47
2019-04-28T20:28:04.244Z,5.60
2019-04-28T20:30:32.579Z,5.97
2019-04-28T20:33:07.361Z,5.87
2019-04-28T20:35:33.716Z,6.33
2019-04-28T20:38:36.041Z,6.07
2019-04-28T20:41:12.626Z,6.30
2019-04-28T20:43:40.762Z,6.20
2019-04-28T20:46:08.704Z,5.93
2019-04-28T20:48:36.505Z,6.47
2019-04-28T20:51:05.309Z,6.20
2019-04-28T20:53:33.028Z,6.70
2019-04-28T20:56:01.016Z,7.67
2019-04-28T20:58:28.814Z,7.57
2019-04-28T21:00:56.620Z,7.47
2019-04-28T21:03:24.394Z,8.20
2019-04-28T21:05:53.182Z,7.63
2019-04-28T21:08:20.933Z,8.17
2019-04-28T21:10:48.740Z,8.07
2019-04-28T21:13:16.502Z,7.87
2019-04-28T21:15:44.369Z,7.70
2019-04-28T21:18:13.071Z,7.87
2019-04-28T21:20:40.886Z,7.60
2019-04-28T21:23:10.916Z,7.20
2019-04-28T21:25:38.758Z,6.70
2019-04-28T21:28:06.603Z,7.10
2019-04-28T21:30:34.491Z,7.53
2019-04-28T21:33:02.391Z,7.30
2019-04-28T21:35:30.247Z,6.77
2019-04-28T21:37:58.057Z,5.70
2019-04-28T21:40:26.863Z,6.03
2019-04-28T21:43:12.894Z,6.23
2019-04-28T21:45:57.405Z,5.50
2019-04-28T21:48:42.505Z,5.67
2019-04-28T21:51:12.075Z,5.13
2019-04-28T21:53:40.216Z,5.70
2019-04-28T21:56:08.083Z,4.93
2019-04-28T21:58:35.852Z,5.00
2019-04-28T22:01:04.915Z,5.20
2019-04-28T22:03:32.704Z,5.13
2019-04-28T22:06:00.498Z,5.27
2019-04-28T22:08:28.229Z,5.10
2019-04-28T22:10:56.050Z,5.27
2019-04-28T22:13:23.910Z,4.70
2019-04-28T22:15:51.721Z,5.43
2019-04-28T22:18:19.533Z,5.00
2019-04-28T22:20:47.313Z,5.20
2019-04-28T22:23:20.115Z,5.60
2019-04-28T22:25:47.943Z,5.90
2019-04-28T22:28:16.016Z,5.53
2019-04-28T22:30:43.865Z,5.50
2019-04-28T22:33:11.635Z,5.67
2019-04-28T22:35:39.433Z,5.90
2019-04-28T22:38:07.285Z,6.57
2019-04-28T22:40:35.038Z,5.50
2019-04-28T22:43:02.827Z,6.47
2019-04-28T22:45:30.607Z,6.33
2019-04-28T22:47:58.489Z,6.30
2019-04-28T22:50:39.342Z,6.17
2019-04-28T22:53:07.370Z,6.43
2019-04-28T22:55:40.105Z,7.13
2019-04-28T22:58:16.825Z,6.23
2019-04-28T23:00:54.579Z,6.50
2019-04-28T23:03:34.524Z,6.40
2019-04-28T23:06:02.509Z,6.80
2019-04-28T23:08:30.380Z,6.77
2019-04-28T23:10:58.149Z,6.83
2019-04-28T23:13:25.955Z,7.70
2019-04-28T23:15:53.848Z,7.20
2019-04-28T23:18:22.295Z,6.40
2019-04-28T23:20:53.410Z,6.30
2019-04-28T23:23:21.560Z,6.37
2019-04-28T23:25:49.346Z,6.60
2019-04-28T23:28:17.206Z,6.57
2019-04-28T23:30:45.904Z,6.40
2019-04-28T23:33:13.748Z,7.00
2019-04-28T23:35:42.337Z,6.40
2019-04-28T23:38:10.114Z,7.00
2019-04-28T23:40:43.063Z,6.97
2019-04-28T23:43:15.617Z,6.43
2019-04-28T23:45:43.416Z,6.57
2019-04-28T23:48:13.715Z,6.40
2019-04-28T23:50:51.039Z,6.17
2019-04-28T23:53:21.125Z,6.43
2019-04-28T23:55:48.851Z,6.43
2019-04-28T23:58:16.636Z,6.27
